sensor_id;sensor_type;location;lat;lon;timestamp;pressure;altitude;pressure_sealevel;temperature;humidity
22181;BME280;11256;50.830;12.834;2023-05-28T00:00:31;98065.50;;;16.26;43.82
22181;BME280;11256;50.830;12.834;2023-05-28T00:05:31;98068.00;;;16.23;44.11
22181;BME280;11256;50.830;12.834;2023-05-28T00:10:31;98072.78;;;16.17;44.36
22181;BME280;11256;50.830;12.834;2023-05-28T00:15:32;98057.44;;;16.08;44.36
22181;BME280;11256;50.830;12.834;2023-05-28T00:20:32;98060.56;;;16.01;44.67
22181;BME280;11256;50.830;12.834;2023-05-28T00:25:32;98065.13;;;15.92;44.84
22181;BME280;11256;50.830;12.834;2023-05-28T00:30:33;98066.97;;;15.83;44.79
22181;BME280;11256;50.830;12.834;2023-05-28T00:35:33;98054.81;;;15.76;44.86
22181;BME280;11256;50.830;12.834;2023-05-28T00:40:33;98053.91;;;15.67;44.78
22181;BME280;11256;50.830;12.834;2023-05-28T00:45:34;98054.63;;;15.59;45.17
22181;BME280;11256;50.830;12.834;2023-05-28T00:50:35;98050.47;;;15.48;45.12
22181;BME280;11256;50.830;12.834;2023-05-28T00:55:35;98051.97;;;15.40;45.49
22181;BME280;11256;50.830;12.834;2023-05-28T01:00:37;98048.59;;;15.30;45.25
22181;BME280;11256;50.830;12.834;2023-05-28T01:05:38;98039.97;;;15.23;45.40
22181;BME280;11256;50.830;12.834;2023-05-28T01:10:38;98030.06;;;15.13;45.76
22181;BME280;11256;50.830;12.834;2023-05-28T01:15:39;98035.91;;;15.07;45.68
22181;BME280;11256;50.830;12.834;2023-05-28T01:20:40;98032.28;;;14.98;45.67
22181;BME280;11256;50.830;12.834;2023-05-28T01:25:41;98031.31;;;14.89;45.80
22181;BME280;11256;50.830;12.834;2023-05-28T01:30:45;98034.72;;;14.81;46.00
22181;BME280;11256;50.830;12.834;2023-05-28T01:35:46;98031.59;;;14.74;46.02
22181;BME280;11256;50.830;12.834;2023-05-28T01:40:47;98018.63;;;14.66;46.23
22181;BME280;11256;50.830;12.834;2023-05-28T01:45:50;98008.38;;;14.58;46.28
22181;BME280;11256;50.830;12.834;2023-05-28T01:50:52;98005.25;;;14.51;46.16
22181;BME280;11256;50.830;12.834;2023-05-28T01:55:54;98015.13;;;14.47;46.38
22181;BME280;11256;50.830;12.834;2023-05-28T02:01:29;98020.72;;;14.37;46.54
22181;BME280;11256;50.830;12.834;2023-05-28T02:06:33;98018.06;;;14.32;46.69
22181;BME280;11256;50.830;12.834;2023-05-28T02:11:33;98009.97;;;14.27;46.82
22181;BME280;11256;50.830;12.834;2023-05-28T02:16:34;98008.47;;;14.16;46.08
22181;BME280;11256;50.830;12.834;2023-05-28T02:21:36;98000.41;;;14.11;46.68
22181;BME280;11256;50.830;12.834;2023-05-28T02:26:36;97995.88;;;14.01;47.14
22181;BME280;11256;50.830;12.834;2023-05-28T02:31:36;97969.72;;;13.82;47.00
22181;BME280;11256;50.830;12.834;2023-05-28T02:36:37;97994.19;;;13.87;47.05
22181;BME280;11256;50.830;12.834;2023-05-28T02:41:37;97997.59;;;13.79;47.18
22181;BME280;11256;50.830;12.834;2023-05-28T02:46:38;97986.22;;;13.72;47.48
22181;BME280;11256;50.830;12.834;2023-05-28T02:51:38;97993.16;;;13.64;47.30
22181;BME280;11256;50.830;12.834;2023-05-28T02:56:48;97992.97;;;13.56;47.46
22181;BME280;11256;50.830;12.834;2023-05-28T03:01:48;97986.50;;;13.52;47.50
22181;BME280;11256;50.830;12.834;2023-05-28T03:06:49;97990.38;;;13.46;47.52
22181;BME280;11256;50.830;12.834;2023-05-28T03:11:50;97990.22;;;13.37;47.63
22181;BME280;11256;50.830;12.834;2023-05-28T03:16:50;97989.97;;;13.34;47.73
22181;BME280;11256;50.830;12.834;2023-05-28T03:21:57;97991.13;;;13.28;47.70
22181;BME280;11256;50.830;12.834;2023-05-28T03:27:05;97989.50;;;13.27;48.10
22181;BME280;11256;50.830;12.834;2023-05-28T03:32:05;97989.56;;;13.22;47.93
22181;BME280;11256;50.830;12.834;2023-05-28T03:37:06;97988.00;;;13.16;48.17
22181;BME280;11256;50.830;12.834;2023-05-28T03:42:08;97995.13;;;13.12;48.42
22181;BME280;11256;50.830;12.834;2023-05-28T03:47:09;97999.00;;;13.06;48.35
22181;BME280;11256;50.830;12.834;2023-05-28T03:52:10;97990.38;;;12.99;48.27
22181;BME280;11256;50.830;12.834;2023-05-28T03:57:24;97985.53;;;12.91;48.53
22181;BME280;11256;50.830;12.834;2023-05-28T04:02:24;97986.09;;;12.88;48.90
22181;BME280;11256;50.830;12.834;2023-05-28T04:07:26;97983.44;;;12.83;48.58
22181;BME280;11256;50.830;12.834;2023-05-28T04:12:26;97989.47;;;12.80;48.98
22181;BME280;11256;50.830;12.834;2023-05-28T04:17:27;97983.25;;;12.74;48.90
22181;BME280;11256;50.830;12.834;2023-05-28T04:22:27;97978.91;;;12.73;49.06
22181;BME280;11256;50.830;12.834;2023-05-28T04:27:28;97978.69;;;12.70;48.94
22181;BME280;11256;50.830;12.834;2023-05-28T04:32:28;97985.19;;;12.69;49.29
22181;BME280;11256;50.830;12.834;2023-05-28T04:37:31;97985.16;;;12.74;49.13
22181;BME280;11256;50.830;12.834;2023-05-28T04:42:33;97974.28;;;12.74;49.61
22181;BME280;11256;50.830;12.834;2023-05-28T04:47:34;97978.03;;;12.78;49.86
22181;BME280;11256;50.830;12.834;2023-05-28T04:52:35;97983.44;;;12.83;49.72
22181;BME280;11256;50.830;12.834;2023-05-28T04:57:36;97976.06;;;12.88;50.00
22181;BME280;11256;50.830;12.834;2023-05-28T05:02:36;97970.84;;;12.92;50.44
22181;BME280;11256;50.830;12.834;2023-05-28T05:07:37;97969.22;;;12.91;49.47
22181;BME280;11256;50.830;12.834;2023-05-28T05:12:38;97982.69;;;13.06;50.51
22181;BME280;11256;50.830;12.834;2023-05-28T05:17:39;97985.34;;;13.11;51.43
22181;BME280;11256;50.830;12.834;2023-05-28T05:22:40;97977.63;;;13.18;51.25
22181;BME280;11256;50.830;12.834;2023-05-28T05:27:41;97966.69;;;13.23;51.49
22181;BME280;11256;50.830;12.834;2023-05-28T05:32:42;97953.41;;;13.21;51.59
22181;BME280;11256;50.830;12.834;2023-05-28T05:37:42;97967.06;;;13.40;52.18
22181;BME280;11256;50.830;12.834;2023-05-28T05:42:58;97969.94;;;13.48;51.78
22181;BME280;11256;50.830;12.834;2023-05-28T05:47:58;97955.44;;;13.53;51.67
22181;BME280;11256;50.830;12.834;2023-05-28T05:52:59;97960.16;;;13.66;51.46
22181;BME280;11256;50.830;12.834;2023-05-28T05:58:01;97954.56;;;13.76;51.59
22181;BME280;11256;50.830;12.834;2023-05-28T06:03:02;97947.50;;;13.75;51.51
22181;BME280;11256;50.830;12.834;2023-05-28T06:08:22;97950.53;;;13.92;51.67
22181;BME280;11256;50.830;12.834;2023-05-28T06:13:49;97959.50;;;14.11;52.05
22181;BME280;11256;50.830;12.834;2023-05-28T06:18:50;97966.97;;;14.24;53.81
22181;BME280;11256;50.830;12.834;2023-05-28T06:23:52;97969.03;;;14.45;54.92
22181;BME280;11256;50.830;12.834;2023-05-28T06:28:52;97961.84;;;14.68;55.97
22181;BME280;11256;50.830;12.834;2023-05-28T06:33:53;97958.84;;;14.83;55.85
22181;BME280;11256;50.830;12.834;2023-05-28T06:38:55;97965.94;;;14.97;56.93
22181;BME280;11256;50.830;12.834;2023-05-28T06:43:57;97960.00;;;15.22;57.67
22181;BME280;11256;50.830;12.834;2023-05-28T06:49:10;97970.63;;;15.64;56.76
22181;BME280;11256;50.830;12.834;2023-05-28T06:54:10;97969.97;;;16.52;56.54
22181;BME280;11256;50.830;12.834;2023-05-28T06:59:11;97969.38;;;17.46;55.81
22181;BME280;11256;50.830;12.834;2023-05-28T07:04:21;97972.91;;;18.20;49.51
22181;BME280;11256;50.830;12.834;2023-05-28T07:09:23;97983.44;;;19.15;51.80
22181;BME280;11256;50.830;12.834;2023-05-28T07:14:23;97961.66;;;19.56;46.82
22181;BME280;11256;50.830;12.834;2023-05-28T07:19:24;97984.19;;;20.48;44.92
22181;BME280;11256;50.830;12.834;2023-05-28T07:24:25;97976.41;;;21.15;43.35
22181;BME280;11256;50.830;12.834;2023-05-28T07:29:26;97967.31;;;21.83;42.30
22181;BME280;11256;50.830;12.834;2023-05-28T07:34:28;97980.84;;;22.64;42.32
22181;BME280;11256;50.830;12.834;2023-05-28T07:39:29;97991.81;;;23.31;41.30
22181;BME280;11256;50.830;12.834;2023-05-28T07:44:30;97982.75;;;23.77;40.77
22181;BME280;11256;50.830;12.834;2023-05-28T07:49:31;97991.97;;;24.50;41.16
22181;BME280;11256;50.830;12.834;2023-05-28T07:54:33;97996.16;;;25.16;41.26
22181;BME280;11256;50.830;12.834;2023-05-28T07:59:34;97989.25;;;25.71;40.79
22181;BME280;11256;50.830;12.834;2023-05-28T08:04:37;97992.41;;;26.44;40.50
22181;BME280;11256;50.830;12.834;2023-05-28T08:09:38;97977.22;;;26.97;38.82
22181;BME280;11256;50.830;12.834;2023-05-28T08:14:41;97992.63;;;27.57;38.51
22181;BME280;11256;50.830;12.834;2023-05-28T08:19:43;97988.06;;;27.82;36.41
22181;BME280;11256;50.830;12.834;2023-05-28T08:25:01;97970.91;;;28.27;37.32
22181;BME280;11256;50.830;12.834;2023-05-28T08:30:02;97972.06;;;28.90;36.87
22181;BME280;11256;50.830;12.834;2023-05-28T08:35:03;97977.06;;;29.56;35.70
22181;BME280;11256;50.830;12.834;2023-05-28T08:40:05;97976.28;;;29.84;34.59
22181;BME280;11256;50.830;12.834;2023-05-28T08:45:09;97961.50;;;29.94;33.80
22181;BME280;11256;50.830;12.834;2023-05-28T08:50:14;97961.88;;;30.38;33.17
22181;BME280;11256;50.830;12.834;2023-05-28T08:55:26;97970.63;;;30.50;32.61
22181;BME280;11256;50.830;12.834;2023-05-28T09:00:37;97976.25;;;30.47;32.81
22181;BME280;11256;50.830;12.834;2023-05-28T09:05:56;97980.88;;;30.99;32.31
22181;BME280;11256;50.830;12.834;2023-05-28T09:10:58;97972.78;;;31.15;31.85
22181;BME280;11256;50.830;12.834;2023-05-28T09:16:08;97952.66;;;31.41;31.20
22181;BME280;11256;50.830;12.834;2023-05-28T09:21:09;97958.59;;;30.71;28.57
22181;BME280;11256;50.830;12.834;2023-05-28T09:26:11;97958.28;;;31.37;29.66
22181;BME280;11256;50.830;12.834;2023-05-28T09:31:19;97960.84;;;31.04;27.55
22181;BME280;11256;50.830;12.834;2023-05-28T09:36:21;97947.00;;;31.48;29.46
22181;BME280;11256;50.830;12.834;2023-05-28T09:41:23;97945.56;;;31.19;29.92
22181;BME280;11256;50.830;12.834;2023-05-28T09:46:30;97945.75;;;30.77;30.05
22181;BME280;11256;50.830;12.834;2023-05-28T09:51:32;97939.19;;;31.22;29.59
22181;BME280;11256;50.830;12.834;2023-05-28T09:56:33;97939.56;;;31.24;29.51
22181;BME280;11256;50.830;12.834;2023-05-28T10:01:38;97950.88;;;30.99;29.53
22181;BME280;11256;50.830;12.834;2023-05-28T10:06:43;97927.47;;;30.48;29.32
22181;BME280;11256;50.830;12.834;2023-05-28T10:11:50;97933.91;;;30.17;29.64
22181;BME280;11256;50.830;12.834;2023-05-28T10:16:54;97925.97;;;29.91;29.58
22181;BME280;11256;50.830;12.834;2023-05-28T10:21:55;97929.13;;;29.51;30.06
22181;BME280;11256;50.830;12.834;2023-05-28T10:26:56;97929.47;;;29.04;31.01
22181;BME280;11256;50.830;12.834;2023-05-28T10:31:59;97920.19;;;28.86;31.78
22181;BME280;11256;50.830;12.834;2023-05-28T10:37:05;97933.72;;;28.77;31.73
22181;BME280;11256;50.830;12.834;2023-05-28T10:42:08;97919.94;;;28.37;31.65
22181;BME280;11256;50.830;12.834;2023-05-28T10:47:13;97909.50;;;28.20;31.79
22181;BME280;11256;50.830;12.834;2023-05-28T10:52:21;97913.78;;;28.03;31.38
22181;BME280;11256;50.830;12.834;2023-05-28T10:57:21;97913.44;;;28.12;32.95
22181;BME280;11256;50.830;12.834;2023-05-28T11:02:26;97907.19;;;28.32;33.06
22181;BME280;11256;50.830;12.834;2023-05-28T11:07:37;97910.13;;;28.64;33.20
22181;BME280;11256;50.830;12.834;2023-05-28T11:12:39;97904.88;;;28.45;32.53
22181;BME280;11256;50.830;12.834;2023-05-28T11:17:41;97904.56;;;28.67;33.19
22181;BME280;11256;50.830;12.834;2023-05-28T11:22:42;97902.59;;;28.75;31.56
22181;BME280;11256;50.830;12.834;2023-05-28T11:27:42;97904.94;;;28.59;32.74
22181;BME280;11256;50.830;12.834;2023-05-28T11:32:47;97901.16;;;29.12;32.53
22181;BME280;11256;50.830;12.834;2023-05-28T11:37:47;97894.38;;;29.17;32.54
22181;BME280;11256;50.830;12.834;2023-05-28T11:42:48;97896.38;;;29.27;33.04
22181;BME280;11256;50.830;12.834;2023-05-28T11:47:50;97882.03;;;29.53;32.45
22181;BME280;11256;50.830;12.834;2023-05-28T11:52:50;97880.00;;;29.53;32.29
22181;BME280;11256;50.830;12.834;2023-05-28T11:57:54;97884.44;;;29.86;31.24
22181;BME280;11256;50.830;12.834;2023-05-28T12:02:56;97880.41;;;29.76;31.86
22181;BME280;11256;50.830;12.834;2023-05-28T12:07:56;97881.22;;;29.91;32.02
22181;BME280;11256;50.830;12.834;2023-05-28T12:12:57;97879.16;;;30.30;31.48
22181;BME280;11256;50.830;12.834;2023-05-28T12:17:59;97892.34;;;30.26;31.51
22181;BME280;11256;50.830;12.834;2023-05-28T12:23:08;97879.59;;;30.14;28.81
22181;BME280;11256;50.830;12.834;2023-05-28T12:28:30;97880.38;;;30.29;30.56
22181;BME280;11256;50.830;12.834;2023-05-28T12:33:32;97886.31;;;30.34;31.04
22181;BME280;11256;50.830;12.834;2023-05-28T12:38:32;97872.38;;;30.10;30.64
22181;BME280;11256;50.830;12.834;2023-05-28T12:43:33;97881.91;;;30.37;31.12
22181;BME280;11256;50.830;12.834;2023-05-28T12:48:33;97884.75;;;30.19;29.94
22181;BME280;11256;50.830;12.834;2023-05-28T12:53:33;97884.38;;;30.17;30.77
22181;BME280;11256;50.830;12.834;2023-05-28T12:58:34;97882.19;;;30.63;30.45
22181;BME280;11256;50.830;12.834;2023-05-28T13:03:34;97876.97;;;30.76;31.21
22181;BME280;11256;50.830;12.834;2023-05-28T13:08:35;97870.47;;;30.93;31.15
22181;BME280;11256;50.830;12.834;2023-05-28T13:13:35;97870.84;;;30.98;31.18
22181;BME280;11256;50.830;12.834;2023-05-28T13:18:35;97861.63;;;30.98;31.61
22181;BME280;11256;50.830;12.834;2023-05-28T13:23:36;97863.97;;;31.13;28.75
22181;BME280;11256;50.830;12.834;2023-05-28T13:28:36;97843.88;;;31.25;31.28
22181;BME280;11256;50.830;12.834;2023-05-28T13:33:36;97848.56;;;31.39;30.65
22181;BME280;11256;50.830;12.834;2023-05-28T13:38:37;97847.19;;;31.61;31.33
22181;BME280;11256;50.830;12.834;2023-05-28T13:43:38;97850.56;;;31.86;30.92
22181;BME280;11256;50.830;12.834;2023-05-28T13:48:38;97833.69;;;31.93;30.38
22181;BME280;11256;50.830;12.834;2023-05-28T13:53:39;97828.34;;;32.02;29.43
22181;BME280;11256;50.830;12.834;2023-05-28T13:58:40;97831.09;;;32.09;28.96
22181;BME280;11256;50.830;12.834;2023-05-28T14:03:40;97833.47;;;32.10;28.93
22181;BME280;11256;50.830;12.834;2023-05-28T14:08:45;97830.19;;;32.15;29.13
22181;BME280;11256;50.830;12.834;2023-05-28T14:13:46;97823.91;;;32.04;28.59
22181;BME280;11256;50.830;12.834;2023-05-28T14:18:46;97817.56;;;32.34;29.08
22181;BME280;11256;50.830;12.834;2023-05-28T14:23:47;97819.66;;;32.26;29.34
22181;BME280;11256;50.830;12.834;2023-05-28T14:28:47;97815.00;;;32.13;27.43
22181;BME280;11256;50.830;12.834;2023-05-28T14:33:47;97812.63;;;32.45;29.75
22181;BME280;11256;50.830;12.834;2023-05-28T14:38:48;97808.31;;;32.37;28.07
22181;BME280;11256;50.830;12.834;2023-05-28T14:43:48;97811.31;;;32.53;28.55
22181;BME280;11256;50.830;12.834;2023-05-28T14:48:48;97809.28;;;32.53;29.20
22181;BME280;11256;50.830;12.834;2023-05-28T14:53:49;97788.56;;;32.74;27.98
22181;BME280;11256;50.830;12.834;2023-05-28T14:58:49;97795.50;;;32.66;27.58
22181;BME280;11256;50.830;12.834;2023-05-28T15:03:49;97785.59;;;32.58;27.36
22181;BME280;11256;50.830;12.834;2023-05-28T15:08:50;97801.25;;;32.85;28.68
22181;BME280;11256;50.830;12.834;2023-05-28T15:13:50;97790.06;;;32.82;27.22
22181;BME280;11256;50.830;12.834;2023-05-28T15:18:50;97795.56;;;32.89;27.72
22181;BME280;11256;50.830;12.834;2023-05-28T15:23:51;97795.97;;;32.91;27.54
22181;BME280;11256;50.830;12.834;2023-05-28T15:28:51;97788.94;;;32.76;25.13
22181;BME280;11256;50.830;12.834;2023-05-28T15:33:52;97782.88;;;32.81;26.23
22181;BME280;11256;50.830;12.834;2023-05-28T15:38:52;97790.53;;;32.77;26.29
22181;BME280;11256;50.830;12.834;2023-05-28T15:43:53;97781.38;;;32.69;25.84
22181;BME280;11256;50.830;12.834;2023-05-28T15:48:53;97787.28;;;32.52;26.46
22181;BME280;11256;50.830;12.834;2023-05-28T15:53:54;97779.31;;;32.47;26.49
22181;BME280;11256;50.830;12.834;2023-05-28T15:58:54;97771.44;;;32.35;26.40
22181;BME280;11256;50.830;12.834;2023-05-28T16:03:55;97783.59;;;32.25;26.83
22181;BME280;11256;50.830;12.834;2023-05-28T16:08:55;97776.06;;;32.18;26.45
22181;BME280;11256;50.830;12.834;2023-05-28T16:13:56;97787.03;;;32.06;26.99
22181;BME280;11256;50.830;12.834;2023-05-28T16:18:57;97783.19;;;31.93;27.07
22181;BME280;11256;50.830;12.834;2023-05-28T16:23:57;97773.56;;;31.94;26.89
22181;BME280;11256;50.830;12.834;2023-05-28T16:28:58;97766.91;;;31.81;26.62
22181;BME280;11256;50.830;12.834;2023-05-28T16:33:58;97770.25;;;31.62;26.61
22181;BME280;11256;50.830;12.834;2023-05-28T16:38:59;97756.47;;;31.41;27.01
22181;BME280;11256;50.830;12.834;2023-05-28T16:44:00;97766.59;;;31.28;27.03
22181;BME280;11256;50.830;12.834;2023-05-28T16:49:00;97751.19;;;30.99;27.28
22181;BME280;11256;50.830;12.834;2023-05-28T16:54:01;97758.13;;;30.84;27.68
22181;BME280;11256;50.830;12.834;2023-05-28T16:59:01;97768.22;;;30.64;27.33
22181;BME280;11256;50.830;12.834;2023-05-28T17:04:02;97761.16;;;30.42;27.44
22181;BME280;11256;50.830;12.834;2023-05-28T17:09:03;97761.69;;;30.19;27.65
22181;BME280;11256;50.830;12.834;2023-05-28T17:14:03;97760.56;;;29.96;27.35
22181;BME280;11256;50.830;12.834;2023-05-28T17:19:04;97766.22;;;29.75;27.06
22181;BME280;11256;50.830;12.834;2023-05-28T17:24:04;97765.06;;;29.55;28.08
22181;BME280;11256;50.830;12.834;2023-05-28T17:29:05;97762.69;;;29.29;27.85
22181;BME280;11256;50.830;12.834;2023-05-28T17:34:06;97757.53;;;29.17;28.08
22181;BME280;11256;50.830;12.834;2023-05-28T17:39:07;97764.72;;;29.04;28.23
22181;BME280;11256;50.830;12.834;2023-05-28T17:44:07;97759.09;;;28.83;28.41
22181;BME280;11256;50.830;12.834;2023-05-28T17:49:12;97767.03;;;28.74;28.21
22181;BME280;11256;50.830;12.834;2023-05-28T17:54:12;97774.19;;;28.54;28.60
22181;BME280;11256;50.830;12.834;2023-05-28T17:59:13;97779.75;;;28.40;28.57
22181;BME280;11256;50.830;12.834;2023-05-28T18:04:13;97779.25;;;28.24;29.11
22181;BME280;11256;50.830;12.834;2023-05-28T18:09:14;97774.00;;;28.05;29.02
22181;BME280;11256;50.830;12.834;2023-05-28T18:14:15;97775.53;;;27.88;29.46
22181;BME280;11256;50.830;12.834;2023-05-28T18:19:15;97764.63;;;27.66;29.33
22181;BME280;11256;50.830;12.834;2023-05-28T18:24:15;97782.50;;;27.54;29.68
22181;BME280;11256;50.830;12.834;2023-05-28T18:29:16;97777.97;;;27.36;29.74
22181;BME280;11256;50.830;12.834;2023-05-28T18:34:16;97768.72;;;27.18;30.02
22181;BME280;11256;50.830;12.834;2023-05-28T18:39:16;97755.72;;;26.89;30.38
22181;BME280;11256;50.830;12.834;2023-05-28T18:44:17;97775.88;;;26.79;30.71
22181;BME280;11256;50.830;12.834;2023-05-28T18:49:17;97761.69;;;26.51;30.73
22181;BME280;11256;50.830;12.834;2023-05-28T18:54:18;97779.03;;;26.41;31.04
22181;BME280;11256;50.830;12.834;2023-05-28T18:59:18;97796.28;;;26.20;31.30
22181;BME280;11256;50.830;12.834;2023-05-28T19:04:18;97798.44;;;26.01;31.09
22181;BME280;11256;50.830;12.834;2023-05-28T19:09:19;97799.72;;;25.81;31.52
22181;BME280;11256;50.830;12.834;2023-05-28T19:14:19;97807.34;;;25.58;31.30
22181;BME280;11256;50.830;12.834;2023-05-28T19:19:20;97805.44;;;25.36;31.59
22181;BME280;11256;50.830;12.834;2023-05-28T19:24:20;97793.13;;;25.11;31.71
22181;BME280;11256;50.830;12.834;2023-05-28T19:29:20;97820.25;;;24.98;32.05
22181;BME280;11256;50.830;12.834;2023-05-28T19:34:21;97821.84;;;24.77;32.29
22181;BME280;11256;50.830;12.834;2023-05-28T19:39:21;97829.03;;;24.59;32.39
22181;BME280;11256;50.830;12.834;2023-05-28T19:44:21;97832.97;;;24.39;32.60
22181;BME280;11256;50.830;12.834;2023-05-28T19:49:22;97839.31;;;24.20;32.94
22181;BME280;11256;50.830;12.834;2023-05-28T19:54:22;97826.59;;;23.97;33.30
22181;BME280;11256;50.830;12.834;2023-05-28T19:59:25;97841.34;;;23.85;33.34
22181;BME280;11256;50.830;12.834;2023-05-28T20:04:25;97849.69;;;23.70;33.43
22181;BME280;11256;50.830;12.834;2023-05-28T20:09:25;97839.72;;;23.50;33.79
22181;BME280;11256;50.830;12.834;2023-05-28T20:14:26;97853.69;;;23.38;33.77
22181;BME280;11256;50.830;12.834;2023-05-28T20:19:26;97845.31;;;23.19;33.95
22181;BME280;11256;50.830;12.834;2023-05-28T20:24:27;97852.00;;;23.02;34.18
22181;BME280;11256;50.830;12.834;2023-05-28T20:29:34;97856.34;;;22.88;34.44
22181;BME280;11256;50.830;12.834;2023-05-28T20:34:35;97858.31;;;22.72;34.41
22181;BME280;11256;50.830;12.834;2023-05-28T20:39:35;97861.00;;;22.56;34.53
22181;BME280;11256;50.830;12.834;2023-05-28T20:44:36;97835.91;;;22.34;35.00
22181;BME280;11256;50.830;12.834;2023-05-28T20:49:37;97863.31;;;22.27;35.14
22181;BME280;11256;50.830;12.834;2023-05-28T20:54:37;97861.31;;;22.12;35.53
22181;BME280;11256;50.830;12.834;2023-05-28T20:59:38;97850.34;;;21.88;35.84
22181;BME280;11256;50.830;12.834;2023-05-28T21:04:38;97863.50;;;21.79;35.90
22181;BME280;11256;50.830;12.834;2023-05-28T21:09:39;97842.91;;;21.52;36.21
22181;BME280;11256;50.830;12.834;2023-05-28T21:14:39;97865.31;;;21.51;36.47
22181;BME280;11256;50.830;12.834;2023-05-28T21:19:39;97872.44;;;21.40;36.49
22181;BME280;11256;50.830;12.834;2023-05-28T21:24:41;97866.59;;;21.29;36.57
22181;BME280;11256;50.830;12.834;2023-05-28T21:29:41;97878.44;;;21.18;36.58
22181;BME280;11256;50.830;12.834;2023-05-28T21:34:42;97864.66;;;21.06;36.71
22181;BME280;11256;50.830;12.834;2023-05-28T21:39:44;97858.69;;;20.92;36.78
22181;BME280;11256;50.830;12.834;2023-05-28T21:44:44;97862.63;;;20.82;36.88
22181;BME280;11256;50.830;12.834;2023-05-28T21:49:45;97864.44;;;20.66;36.64
22181;BME280;11256;50.830;12.834;2023-05-28T21:54:46;97862.47;;;20.55;37.18
22181;BME280;11256;50.830;12.834;2023-05-28T21:59:48;97848.75;;;20.34;37.44
22181;BME280;11256;50.830;12.834;2023-05-28T22:04:53;97855.97;;;20.27;37.89
22181;BME280;11256;50.830;12.834;2023-05-28T22:09:54;97858.19;;;20.13;37.94
22181;BME280;11256;50.830;12.834;2023-05-28T22:14:55;97835.47;;;19.95;38.08
22181;BME280;11256;50.830;12.834;2023-05-28T22:19:55;97852.06;;;19.87;38.39
22181;BME280;11256;50.830;12.834;2023-05-28T22:24:57;97850.84;;;19.76;38.55
22181;BME280;11256;50.830;12.834;2023-05-28T22:29:57;97855.84;;;19.62;38.80
22181;BME280;11256;50.830;12.834;2023-05-28T22:34:57;97850.25;;;19.50;39.05
22181;BME280;11256;50.830;12.834;2023-05-28T22:39:58;97838.88;;;19.31;39.23
22181;BME280;11256;50.830;12.834;2023-05-28T22:44:58;97861.38;;;19.24;39.29
22181;BME280;11256;50.830;12.834;2023-05-28T22:49:59;97854.47;;;19.10;39.46
22181;BME280;11256;50.830;12.834;2023-05-28T22:55:00;97858.75;;;18.99;39.67
22181;BME280;11256;50.830;12.834;2023-05-28T23:00:00;97864.59;;;18.89;39.82
22181;BME280;11256;50.830;12.834;2023-05-28T23:05:01;97864.50;;;18.77;39.95
22181;BME280;11256;50.830;12.834;2023-05-28T23:10:01;97856.94;;;18.57;39.99
22181;BME280;11256;50.830;12.834;2023-05-28T23:15:03;97870.06;;;18.51;40.16
22181;BME280;11256;50.830;12.834;2023-05-28T23:20:04;97867.34;;;18.34;40.47
22181;BME280;11256;50.830;12.834;2023-05-28T23:25:09;97872.16;;;18.29;40.57
22181;BME280;11256;50.830;12.834;2023-05-28T23:30:09;97860.59;;;18.15;40.67
22181;BME280;11256;50.830;12.834;2023-05-28T23:35:10;97871.41;;;18.03;40.96
22181;BME280;11256;50.830;12.834;2023-05-28T23:40:11;97872.88;;;17.92;40.95
22181;BME280;11256;50.830;12.834;2023-05-28T23:45:11;97873.03;;;17.78;41.41
22181;BME280;11256;50.830;12.834;2023-05-28T23:50:12;97873.34;;;17.68;41.38
22181;BME280;11256;50.830;12.834;2023-05-28T23:55:12;97850.56;;;17.51;41.63
